Time;durP1;ratioP1;P1;durP2;ratioP2;P2;SDS_P1;SDS_P2;PMS_P1;PMS_P2;Temp;Humidity;BMP_temperature;BMP_pressure;BME280_temperature;BME280_humidity;BME280_pressure;Samples;Min_cycle;Max_cycle;Signal;HPM_P1;HPM_P2
2022/08/09 00:02:27;;;;;;;7.88;6.00;;;;;;;14.13;63.84;94469.81;5004604;28;20053;-67
2022/08/09 00:04:54;;;;;;;6.10;4.50;;;;;;;14.09;64.30;94469.88;5005103;28;20050;-66
2022/08/09 00:07:42;;;;;;;7.05;4.88;;;;;;;13.79;65.27;94470.84;4997420;28;20046;-67
2022/08/09 00:10:11;;;;;;;6.50;4.30;;;;;;;13.65;65.97;94471.88;4984780;28;20038;-67
2022/08/09 00:12:48;;;;;;;6.47;4.78;;;;;;;13.69;65.76;94475.34;4985776;28;20050;-67
2022/08/09 00:15:20;;;;;;;6.53;4.47;;;;;;;13.70;66.14;94471.41;4989492;28;20046;-66
2022/08/09 00:18:07;;;;;;;7.13;4.47;;;;;;;13.66;66.38;94469.91;4989201;28;20077;-66
2022/08/09 00:20:38;;;;;;;7.15;4.60;;;;;;;13.71;66.28;94472.94;4989307;28;20042;-68
2022/08/09 00:23:16;;;;;;;7.13;5.00;;;;;;;13.72;65.92;94459.94;4989188;28;20610;-67
2022/08/09 00:26:04;;;;;;;9.80;7.30;;;;;;;13.70;66.26;94463.13;4988990;28;20069;-66
2022/08/09 00:28:32;;;;;;;15.30;9.45;;;;;;;13.64;66.25;94453.00;4989317;28;20052;-68
2022/08/09 00:31:01;;;;;;;6.78;5.40;;;;;;;13.29;67.92;94455.97;4988802;28;20703;-67
2022/08/09 00:33:49;;;;;;;6.55;5.13;;;;;;;13.41;67.23;94457.34;5008733;28;20041;-69
2022/08/09 00:36:22;;;;;;;6.70;4.90;;;;;;;13.42;67.14;94464.44;5013418;28;20121;-69
2022/08/09 00:38:57;;;;;;;6.97;5.10;;;;;;;13.47;67.35;94460.41;5008349;28;20085;-66
2022/08/09 00:41:24;;;;;;;6.32;5.00;;;;;;;13.53;66.93;94456.72;5040760;28;20388;-69
2022/08/09 00:44:10;;;;;;;6.60;4.85;;;;;;;13.44;67.72;94448.25;5008779;28;20080;-66
2022/08/09 00:46:54;;;;;;;6.20;4.78;;;;;;;13.42;67.49;94461.66;5007984;28;20041;-66
2022/08/09 00:49:34;;;;;;;6.63;4.80;;;;;;;13.23;68.23;94456.84;5009140;28;20501;-66
2022/08/09 00:52:05;;;;;;;8.00;5.22;;;;;;;13.04;68.85;94466.56;5008381;28;20065;-66
2022/08/09 00:54:43;;;;;;;7.57;5.30;;;;;;;13.09;69.30;94466.13;5008521;28;20046;-66
2022/08/09 00:57:10;;;;;;;7.30;5.28;;;;;;;13.11;68.88;94466.47;5008387;28;20061;-69
2022/08/09 00:59:41;;;;;;;6.75;5.18;;;;;;;13.13;68.97;94466.84;4994230;28;20049;-67
2022/08/09 01:02:19;;;;;;;9.00;4.90;;;;;;;13.25;68.62;94469.00;5015406;28;20814;-66
2022/08/09 01:04:59;;;;;;;8.25;6.22;;;;;;;12.94;69.78;94473.84;5015091;28;20049;-67
2022/08/09 01:07:40;;;;;;;7.95;5.80;;;;;;;13.07;69.53;94471.28;5014615;28;21397;-68
2022/08/09 01:10:33;;;;;;;8.27;5.47;;;;;;;13.14;69.08;94469.19;5014442;28;20045;-68
2022/08/09 01:13:10;;;;;;;8.05;5.55;;;;;;;12.87;69.83;94477.47;5014850;28;20402;-66
2022/08/09 01:15:47;;;;;;;6.47;5.10;;;;;;;12.74;70.94;94471.00;4999612;28;20042;-67
2022/08/09 01:18:23;;;;;;;6.70;5.10;;;;;;;12.86;70.20;94467.66;5004930;28;22176;-66
2022/08/09 01:21:26;;;;;;;7.03;5.22;;;;;;;12.87;70.41;94466.44;5013344;28;20398;-67
2022/08/09 01:24:32;;;;;;;6.75;5.60;;;;;;;12.87;70.00;94469.19;5014586;28;20046;-69
2022/08/09 01:27:08;;;;;;;6.78;5.28;;;;;;;12.91;70.39;94469.91;5014440;28;20046;-66
2022/08/09 01:29:43;;;;;;;7.47;5.17;;;;;;;12.89;70.48;94466.81;5014761;28;20058;-67
2022/08/09 01:32:29;;;;;;;6.70;5.28;;;;;;;12.76;70.77;94463.88;5013665;28;20506;-66
2022/08/09 01:35:09;;;;;;;6.80;5.30;;;;;;;12.47;72.30;94466.22;5044532;28;20049;-66
2022/08/09 01:38:00;;;;;;;6.78;5.32;;;;;;;12.69;71.56;94460.44;4997568;28;20142;-65
2022/08/09 01:40:41;;;;;;;8.82;5.90;;;;;;;12.68;71.36;94458.88;5014340;28;20037;-67
2022/08/09 01:43:09;;;;;;;7.70;5.30;;;;;;;12.71;71.10;94449.78;5014648;28;20395;-66
2022/08/09 01:45:37;;;;;;;7.50;5.38;;;;;;;12.70;71.09;94450.97;5013326;28;20054;-67
2022/08/09 01:48:15;;;;;;;8.80;6.25;;;;;;;12.46;72.37;94445.41;5014607;28;20050;-69
2022/08/09 01:50:47;;;;;;;7.30;5.75;;;;;;;12.61;71.83;94445.97;5014574;28;20304;-67
2022/08/09 01:53:23;;;;;;;7.55;5.70;;;;;;;12.47;71.99;94446.97;5012877;28;20049;-68
2022/08/09 01:56:08;;;;;;;6.87;5.60;;;;;;;12.49;72.21;94443.81;5002203;28;20050;-68
2022/08/09 01:58:37;;;;;;;8.65;5.70;;;;;;;12.37;72.50;94445.94;5014637;28;20042;-65
2022/08/09 02:01:06;;;;;;;9.05;5.40;;;;;;;12.46;72.49;94444.66;4998980;28;20046;-68
2022/08/09 02:03:35;;;;;;;7.15;5.70;;;;;;;12.49;72.21;94452.06;5020926;28;20107;-66
2022/08/09 02:06:06;;;;;;;7.78;5.68;;;;;;;12.31;72.98;94455.81;5014123;28;20065;-66
2022/08/09 02:08:36;;;;;;;8.10;5.40;;;;;;;12.34;73.01;94446.75;5014733;28;20044;-65
2022/08/09 02:11:27;;;;;;;6.97;5.40;;;;;;;12.37;73.05;94451.44;5000551;28;20564;-68
2022/08/09 02:14:11;;;;;;;9.15;6.97;;;;;;;12.29;72.99;94452.69;5009063;28;20481;-67
2022/08/09 02:16:42;;;;;;;11.13;6.45;;;;;;;12.41;72.72;94450.59;5010231;28;20065;-69
2022/08/09 02:19:29;;;;;;;7.57;6.05;;;;;;;12.40;73.02;94452.59;5010613;28;20617;-66
2022/08/09 02:22:34;;;;;;;7.90;5.60;;;;;;;12.35;72.95;94464.03;5010754;28;20041;-65
2022/08/09 02:25:06;;;;;;;8.13;5.82;;;;;;;12.24;73.44;94460.66;4997814;28;20034;-69
2022/08/09 02:27:37;;;;;;;8.45;5.88;;;;;;;12.21;73.26;94461.47;5011140;28;20041;-68
2022/08/09 02:30:25;;;;;;;7.38;5.95;;;;;;;12.26;73.54;94470.06;5010459;28;21438;-66
2022/08/09 02:32:53;;;;;;;7.95;6.03;;;;;;;12.33;73.03;94478.22;5010504;28;20042;-67
2022/08/09 02:35:24;;;;;;;7.50;5.80;;;;;;;12.24;73.38;94472.44;5019100;28;20061;-67
2022/08/09 02:38:13;;;;;;;8.05;5.93;;;;;;;12.19;73.18;94472.88;5010628;28;20050;-68
2022/08/09 02:41:01;;;;;;;7.38;5.82;;;;;;;12.17;73.45;94469.78;5010543;28;20042;-68
2022/08/09 02:43:31;;;;;;;8.23;6.10;;;;;;;12.18;73.55;94474.88;5011080;28;20042;-66
2022/08/09 02:46:18;;;;;;;8.15;5.97;;;;;;;12.18;73.38;94472.13;5010143;28;20092;-68
2022/08/09 02:48:46;;;;;;;8.73;5.90;;;;;;;12.16;73.70;94473.72;5010687;28;20044;-66
2022/08/09 02:51:21;;;;;;;9.30;6.18;;;;;;;12.18;73.78;94474.88;5010165;28;20130;-66
2022/08/09 02:53:56;;;;;;;8.07;6.32;;;;;;;12.15;73.91;94472.94;5009974;28;20111;-67
2022/08/09 02:56:32;;;;;;;8.38;5.95;;;;;;;12.16;73.15;94484.72;5010731;28;20060;-67
2022/08/09 02:59:02;;;;;;;9.48;6.20;;;;;;;12.13;73.24;94472.59;5010018;28;20044;-66
2022/08/09 03:01:32;;;;;;;8.10;5.93;;;;;;;12.10;73.45;94472.63;5010738;28;20732;-68
2022/08/09 03:04:19;;;;;;;8.15;5.80;;;;;;;12.07;73.52;94471.44;5007519;28;20470;-69
2022/08/09 03:06:53;;;;;;;8.70;5.97;;;;;;;12.07;73.59;94467.94;5010071;28;20034;-67
2022/08/09 03:09:21;;;;;;;8.48;6.10;;;;;;;12.00;73.91;94471.56;5010656;28;20044;-66
2022/08/09 03:11:49;;;;;;;7.75;6.10;;;;;;;11.96;73.63;94474.34;5009770;28;20038;-65
2022/08/09 03:14:38;;;;;;;7.57;6.10;;;;;;;11.92;74.14;94473.59;5008704;28;20044;-69
2022/08/09 03:17:07;;;;;;;7.40;5.97;;;;;;;11.93;73.73;94475.19;5009746;28;20418;-68
2022/08/09 03:19:42;;;;;;;8.45;6.45;;;;;;;11.90;73.90;94475.22;5009938;28;20100;-66
2022/08/09 03:22:28;;;;;;;8.38;6.10;;;;;;;11.88;74.40;94467.34;5009024;28;20832;-69
2022/08/09 03:24:57;;;;;;;7.93;6.13;;;;;;;11.86;74.06;94464.22;5009455;28;20107;-66
2022/08/09 03:27:47;;;;;;;9.20;6.37;;;;;;;11.91;74.17;94469.31;5009493;28;20041;-66
2022/08/09 03:30:15;;;;;;;11.35;6.20;;;;;;;11.88;73.76;94477.56;5009333;28;21640;-68
2022/08/09 03:33:08;;;;;;;8.07;6.20;;;;;;;11.87;73.99;94470.50;5009368;28;20057;-66
2022/08/09 03:35:50;;;;;;;7.78;6.03;;;;;;;11.82;73.93;94471.72;5017809;28;20599;-67
2022/08/09 03:38:39;;;;;;;8.68;6.53;;;;;;;11.65;74.82;94467.19;5035240;28;20042;-68
2022/08/09 03:41:09;;;;;;;9.03;5.90;;;;;;;11.71;74.40;94471.84;4997681;28;20035;-70
2022/08/09 03:43:42;;;;;;;8.40;6.28;;;;;;;11.65;74.89;94478.19;5037366;28;20038;-68
2022/08/09 03:46:29;;;;;;;9.20;6.53;;;;;;;11.71;74.79;94477.34;5009161;28;20438;-68
2022/08/09 03:48:59;;;;;;;8.80;6.50;;;;;;;11.72;74.44;94476.16;5009161;28;20046;-68
2022/08/09 03:51:30;;;;;;;8.45;6.40;;;;;;;11.74;74.66;94473.00;5009803;28;20037;-71
2022/08/09 03:54:18;;;;;;;8.43;5.97;;;;;;;11.56;74.62;94486.94;5008743;28;20502;-67
2022/08/09 03:56:56;;;;;;;8.82;5.90;;;;;;;11.48;74.88;94488.97;5008559;28;20042;-67
2022/08/09 03:59:24;;;;;;;8.23;6.18;;;;;;;11.40;74.81;94488.25;5009708;28;20042;-69
2022/08/09 04:02:09;;;;;;;12.13;7.45;;;;;;;11.43;74.56;94488.63;5014372;28;20071;-66
2022/08/09 04:04:36;;;;;;;9.00;6.47;;;;;;;11.43;75.12;94483.13;4993959;28;20052;-67
2022/08/09 04:07:05;;;;;;;8.00;6.20;;;;;;;11.43;74.79;94492.16;4997589;28;20064;-67
2022/08/09 04:09:32;;;;;;;8.05;6.35;;;;;;;11.47;74.93;94497.59;5005907;28;20429;-69
2022/08/09 04:12:24;;;;;;;10.82;7.18;;;;;;;11.36;76.77;94493.00;5008821;28;20868;-68
2022/08/09 04:14:57;;;;;;;8.63;6.68;;;;;;;11.52;75.75;94500.69;5007191;28;20046;-68
2022/08/09 04:17:27;;;;;;;10.85;7.03;;;;;;;11.57;75.65;94505.78;5001652;28;20164;-68
2022/08/09 04:19:55;;;;;;;9.00;6.40;;;;;;;11.59;75.64;94499.88;5007970;28;20045;-68
2022/08/09 04:22:22;;;;;;;8.88;6.75;;;;;;;11.59;75.90;94510.88;5009269;28;20050;-69
2022/08/09 04:24:49;;;;;;;8.57;6.53;;;;;;;11.67;75.65;94508.81;4993476;28;20048;-65
2022/08/09 04:27:16;;;;;;;9.23;6.68;;;;;;;11.72;75.54;94517.41;5009043;28;20495;-66
2022/08/09 04:29:48;;;;;;;8.50;6.40;;;;;;;11.71;74.54;94512.28;5008562;28;20042;-68
2022/08/09 04:32:16;;;;;;;10.83;6.70;;;;;;;11.75;74.48;94518.53;4999827;28;20042;-69
2022/08/09 04:34:57;;;;;;;8.70;6.50;;;;;;;11.75;74.84;94518.53;5009775;28;20054;-66
2022/08/09 04:37:27;;;;;;;8.88;6.85;;;;;;;11.80;74.77;94512.59;5009263;28;20107;-67
2022/08/09 04:40:13;;;;;;;8.40;6.32;;;;;;;11.78;74.11;94520.47;4993695;28;20048;-66
2022/08/09 04:43:00;;;;;;;8.98;6.35;;;;;;;11.75;73.69;94524.84;4996068;28;20046;-66
2022/08/09 04:45:26;;;;;;;8.57;6.13;;;;;;;11.81;73.63;94516.91;5038959;28;20052;-66
2022/08/09 04:47:58;;;;;;;8.95;6.30;;;;;;;11.83;73.57;94520.06;5007709;28;20590;-68
2022/08/09 04:50:30;;;;;;;9.80;7.07;;;;;;;11.70;74.40;94511.53;5008380;28;20046;-67
2022/08/09 04:53:06;;;;;;;8.85;6.50;;;;;;;11.85;74.17;94516.88;5007311;28;20427;-68
2022/08/09 04:55:40;;;;;;;8.35;6.85;;;;;;;11.78;74.11;94513.00;5007900;28;20052;-69
2022/08/09 04:58:28;;;;;;;8.10;6.43;;;;;;;11.77;74.44;94521.66;5007510;28;20266;-67
2022/08/09 05:01:00;;;;;;;9.63;6.50;;;;;;;11.81;74.27;94514.16;5002891;28;20038;-66
2022/08/09 05:03:27;;;;;;;8.88;6.78;;;;;;;11.87;74.50;94509.00;5002820;28;20426;-66
2022/08/09 05:06:10;;;;;;;8.57;6.38;;;;;;;11.79;73.56;94522.03;5005895;28;20713;-68
2022/08/09 05:08:53;;;;;;;8.75;6.45;;;;;;;11.68;74.37;94521.38;5007431;28;20372;-67
2022/08/09 05:11:27;;;;;;;8.50;6.30;;;;;;;11.60;74.67;94521.44;5008080;28;20057;-67
2022/08/09 05:13:57;;;;;;;8.00;6.53;;;;;;;11.73;74.12;94524.47;5007205;28;20068;-67
2022/08/09 05:16:24;;;;;;;11.57;7.97;;;;;;;11.85;74.39;94523.19;5007962;28;20048;-66
2022/08/09 05:18:57;;;;;;;12.13;7.38;;;;;;;11.80;75.28;94527.13;4998661;28;20050;-69
2022/08/09 05:21:27;;;;;;;11.25;7.03;;;;;;;11.64;75.59;94523.38;4990307;28;20041;-68
2022/08/09 05:24:02;;;;;;;10.60;7.33;;;;;;;11.78;75.65;94532.25;5006045;28;20054;-66
2022/08/09 05:26:31;;;;;;;10.77;7.85;;;;;;;11.74;75.77;94526.00;4996917;28;20487;-66
2022/08/09 05:29:20;;;;;;;10.05;7.55;;;;;;;11.69;76.25;94528.41;5007822;28;20042;-69
2022/08/09 05:31:59;;;;;;;13.43;8.30;;;;;;;12.06;76.15;94527.69;5007943;28;20483;-66
2022/08/09 05:34:27;;;;;;;10.32;7.50;;;;;;;12.25;75.14;94534.53;5015949;28;20109;-68
2022/08/09 05:37:02;;;;;;;9.93;7.13;;;;;;;12.45;74.12;94533.91;4999445;28;20042;-68
2022/08/09 05:39:34;;;;;;;11.82;7.57;;;;;;;12.57;74.38;94531.38;5002222;28;20088;-67
2022/08/09 05:42:09;;;;;;;9.35;7.15;;;;;;;12.57;74.57;94536.88;5007716;28;20042;-66
2022/08/09 05:44:51;;;;;;;10.15;7.70;;;;;;;12.34;75.13;94528.53;5009891;28;20044;-69
2022/08/09 05:47:19;;;;;;;11.60;8.30;;;;;;;12.58;74.96;94530.19;5011004;28;21393;-67
2022/08/09 05:49:48;;;;;;;10.83;7.30;;;;;;;12.85;74.22;94537.69;5011113;28;20073;-67
2022/08/09 05:52:35;;;;;;;9.25;7.40;;;;;;;12.96;74.48;94534.81;5011850;28;20042;-68
2022/08/09 05:55:05;;;;;;;10.82;7.70;;;;;;;12.95;74.42;94530.47;5032132;28;20050;-67
2022/08/09 05:57:35;;;;;;;10.57;7.90;;;;;;;13.22;73.79;94530.50;4994702;28;20046;-66
2022/08/09 06:00:22;;;;;;;12.48;7.93;;;;;;;13.39;73.63;94534.94;5007807;28;21505;-66
2022/08/09 06:02:49;;;;;;;10.50;7.80;;;;;;;13.52;73.82;94529.63;5017903;28;20270;-68
2022/08/09 06:05:22;;;;;;;10.23;8.00;;;;;;;13.88;73.22;94536.50;5012375;28;20050;-66
2022/08/09 06:08:09;;;;;;;11.60;7.50;;;;;;;15.93;66.34;94536.41;5010960;28;20069;-67
2022/08/09 06:10:37;;;;;;;8.10;6.75;;;;;;;19.75;54.08;94531.75;5011465;28;20060;-70
2022/08/09 06:13:08;;;;;;;9.07;6.30;;;;;;;22.48;46.76;94536.03;5010898;28;20046;-67
2022/08/09 06:15:47;;;;;;;6.67;5.60;;;;;;;23.60;43.16;94535.69;5011556;28;20060;-67
2022/08/09 06:18:21;;;;;;;7.60;5.35;;;;;;;25.15;40.30;94545.03;5010541;28;20421;-66
2022/08/09 06:20:55;;;;;;;7.03;6.05;;;;;;;25.24;40.74;94530.88;5010988;28;20042;-65
2022/08/09 06:23:28;;;;;;;7.07;5.75;;;;;;;25.97;39.03;94541.91;4998443;28;20041;-65
2022/08/09 06:26:16;;;;;;;5.60;5.10;;;;;;;25.37;40.27;94530.44;5010441;28;21198;-66
2022/08/09 06:28:51;;;;;;;6.60;4.93;;;;;;;26.56;37.19;94539.63;5010673;28;20053;-67
2022/08/09 06:31:32;;;;;;;5.78;4.95;;;;;;;26.79;37.32;94541.28;4997021;28;20050;-69
2022/08/09 06:34:20;;;;;;;4.97;4.22;;;;;;;29.04;32.80;94526.13;5007468;28;20424;-67
2022/08/09 06:36:52;;;;;;;5.85;4.60;;;;;;;27.64;34.85;94539.34;5010370;28;20050;-68
2022/08/09 06:39:25;;;;;;;5.82;4.00;;;;;;;30.69;28.39;94522.59;5011278;28;20046;-69
2022/08/09 06:42:13;;;;;;;4.90;3.60;;;;;;;31.60;28.71;94526.50;5010958;28;20053;-66
2022/08/09 06:44:39;;;;;;;4.70;3.45;;;;;;;31.94;27.43;94530.88;4999772;28;20101;-68
2022/08/09 06:47:06;;;;;;;4.45;3.75;;;;;;;31.38;27.98;94530.44;5008454;28;20054;-65
2022/08/09 06:49:34;;;;;;;3.90;3.45;;;;;;;32.03;26.49;94531.22;5011211;28;20038;-68
2022/08/09 06:52:21;;;;;;;4.97;3.03;;;;;;;32.66;24.39;94532.91;5010120;28;20637;-66
2022/08/09 06:54:50;;;;;;;5.07;2.87;;;;;;;33.55;22.95;94537.97;5010288;28;20135;-66
2022/08/09 06:57:19;;;;;;;4.32;3.08;;;;;;;34.90;23.10;94536.56;5009641;28;20046;-68
2022/08/09 07:00:07;;;;;;;5.65;3.20;;;;;;;34.46;22.15;94542.94;5008992;28;20076;-69
2022/08/09 07:02:54;;;;;;;4.57;3.30;;;;;;;33.91;24.51;94549.53;5016581;28;20050;-67
2022/08/09 07:05:23;;;;;;;5.88;3.80;;;;;;;33.02;25.79;94548.19;5041847;28;20067;-67
2022/08/09 07:08:10;;;;;;;3.60;3.00;;;;;;;34.61;22.17;94550.81;5009944;28;20045;-69
2022/08/09 07:10:37;;;;;;;4.75;3.00;;;;;;;36.14;20.43;94552.69;5009588;28;20437;-67
2022/08/09 07:13:04;;;;;;;4.60;3.20;;;;;;;30.09;26.01;94557.50;5009853;28;20037;-66
2022/08/09 07:15:51;;;;;;;5.85;3.20;;;;;;;30.84;26.39;94549.19;5007615;28;20057;-67
2022/08/09 07:18:37;;;;;;;3.67;3.00;;;;;;;32.76;23.17;94548.97;5001750;28;20439;-67
2022/08/09 07:21:04;;;;;;;4.87;3.00;;;;;;;35.09;21.09;94544.81;5009550;28;20050;-69
2022/08/09 07:23:34;;;;;;;4.93;3.20;;;;;;;35.66;20.26;94552.44;5010396;28;20509;-67
2022/08/09 07:26:02;;;;;;;4.22;3.15;;;;;;;33.14;22.29;94553.63;5009436;28;20046;-68
2022/08/09 07:28:30;;;;;;;3.40;2.75;;;;;;;34.00;22.20;94540.47;5009824;28;20050;-70
2022/08/09 07:31:03;;;;;;;4.30;2.90;;;;;;;36.08;19.99;94552.91;5009915;28;20502;-67
2022/08/09 07:33:31;;;;;;;4.67;2.90;;;;;;;36.52;19.40;94543.34;5011488;28;20046;-68
2022/08/09 07:36:18;;;;;;;4.05;2.80;;;;;;;36.06;19.77;94543.34;5013408;28;20046;-70
2022/08/09 07:38:45;;;;;;;4.30;2.70;;;;;;;36.59;19.16;94548.31;5010028;28;20040;-67
2022/08/09 07:41:24;;;;;;;4.50;2.80;;;;;;;35.68;20.12;94553.41;5009042;28;20726;-67
2022/08/09 07:43:52;;;;;;;3.65;3.20;;;;;;;25.69;33.24;94564.19;5009313;28;20042;-73
2022/08/09 07:46:22;;;;;;;5.10;3.50;;;;;;;29.24;27.49;94556.09;5009591;28;20050;-68
2022/08/09 07:48:54;;;;;;;4.03;3.10;;;;;;;32.55;22.94;94560.22;4993504;28;20470;-70
2022/08/09 07:51:26;;;;;;;3.42;3.00;;;;;;;29.77;26.94;94553.16;5010188;28;20052;-68
2022/08/09 07:54:13;;;;;;;6.28;3.13;;;;;;;34.32;21.72;94559.38;5008452;28;20612;-68
2022/08/09 07:56:41;;;;;;;10.35;3.35;;;;;;;28.86;28.15;94567.06;5009373;28;20054;-68
2022/08/09 07:59:18;;;;;;;5.43;3.20;;;;;;;30.78;25.32;94554.16;5008605;28;20856;-71
2022/08/09 08:01:59;;;;;;;4.15;3.10;;;;;;;30.74;25.47;94556.53;5012790;28;20038;-69
2022/08/09 08:04:26;;;;;;;4.82;3.38;;;;;;;29.89;26.61;94558.72;5011995;28;20037;-68
2022/08/09 08:07:01;;;;;;;4.03;3.20;;;;;;;32.55;23.53;94550.94;5008821;28;20037;-71
2022/08/09 08:09:49;;;;;;;4.15;3.20;;;;;;;34.45;20.78;94560.59;5008802;28;20495;-68
2022/08/09 08:12:34;;;;;;;4.20;3.17;;;;;;;32.07;23.58;94556.44;5009605;28;20042;-69
2022/08/09 08:15:03;;;;;;;4.15;3.10;;;;;;;31.40;24.26;94561.88;4998868;28;20043;-69
2022/08/09 08:17:30;;;;;;;7.68;3.38;;;;;;;27.53;28.62;94563.97;5004534;28;20045;-69
2022/08/09 08:20:20;;;;;;;4.63;3.22;;;;;;;28.52;27.98;94563.63;5008405;28;20112;-70
2022/08/09 08:22:57;;;;;;;4.40;3.35;;;;;;;27.84;28.06;94566.53;5008707;28;20103;-69
2022/08/09 08:25:29;;;;;;;4.83;3.30;;;;;;;26.33;30.75;94590.19;5009540;28;20470;-69
2022/08/09 08:28:13;;;;;;;4.82;3.30;;;;;;;31.75;23.64;94564.97;5008206;28;20127;-69
2022/08/09 08:30:43;;;;;;;5.30;3.28;;;;;;;30.66;24.39;94559.22;5009021;28;20119;-68
2022/08/09 08:33:10;;;;;;;3.60;3.00;;;;;;;31.83;23.65;94565.84;4993515;28;20520;-69
2022/08/09 08:35:47;;;;;;;4.43;2.90;;;;;;;33.36;21.98;94556.00;4995814;28;20037;-69
2022/08/09 08:38:27;;;;;;;4.87;2.83;;;;;;;28.50;26.82;94560.56;5008025;28;20890;-69
2022/08/09 08:40:56;;;;;;;4.60;2.80;;;;;;;32.60;22.11;94550.09;5008500;28;20037;-67
2022/08/09 08:43:25;;;;;;;4.63;2.97;;;;;;;31.79;22.80;94554.84;5008972;28;20046;-69
2022/08/09 08:45:58;;;;;;;4.50;2.88;;;;;;;28.93;25.10;94568.56;4994396;28;20054;-69
2022/08/09 08:48:45;;;;;;;5.05;3.22;;;;;;;27.03;28.97;94569.00;5008971;28;20045;-69
2022/08/09 08:51:21;;;;;;;5.13;3.13;;;;;;;29.54;25.79;94563.06;5006866;28;20092;-70
2022/08/09 08:53:51;;;;;;;4.25;3.00;;;;;;;29.08;26.57;94551.28;5008251;28;20038;-69
2022/08/09 08:56:40;;;;;;;4.68;3.30;;;;;;;30.34;25.10;94561.13;5008681;28;20053;-69
2022/08/09 08:59:09;;;;;;;4.18;2.92;;;;;;;31.54;23.55;94565.56;5008312;28;20072;-70
2022/08/09 09:01:48;;;;;;;4.63;3.00;;;;;;;30.49;23.61;94558.66;5010688;28;20042;-70
2022/08/09 09:04:26;;;;;;;5.70;2.90;;;;;;;32.64;21.14;94556.22;5017964;28;20045;-68
2022/08/09 09:06:56;;;;;;;3.90;2.85;;;;;;;27.60;27.80;94597.28;5008117;28;20042;-69
2022/08/09 09:09:26;;;;;;;5.30;2.97;;;;;;;29.63;24.80;94572.00;5008731;28;20045;-68
2022/08/09 09:12:15;;;;;;;4.25;2.90;;;;;;;31.25;23.41;94565.19;5007658;28;20478;-69
2022/08/09 09:14:44;;;;;;;3.95;2.70;;;;;;;29.92;23.92;94566.16;5006942;28;20046;-69
2022/08/09 09:17:11;;;;;;;5.63;2.83;;;;;;;29.78;24.82;94574.50;5008683;28;20046;-70
2022/08/09 09:19:43;;;;;;;5.55;3.00;;;;;;;27.42;27.97;94573.19;5010224;28;20065;-70
2022/08/09 09:22:15;;;;;;;5.30;3.17;;;;;;;27.93;27.47;94582.47;5010504;28;20046;-69
2022/08/09 09:24:44;;;;;;;5.65;2.83;;;;;;;28.50;26.19;94571.84;5012732;28;20043;-68
2022/08/09 09:27:13;;;;;;;4.30;3.53;;;;;;;27.44;27.50;94573.44;5011555;28;20046;-68
2022/08/09 09:30:10;;;;;;;5.30;3.00;;;;;;;28.96;25.63;94561.88;5011733;28;20045;-69
2022/08/09 09:33:08;;;;;;;4.65;2.70;;;;;;;30.05;24.76;94552.13;5012095;28;20045;-69
2022/08/09 09:35:54;;;;;;;4.57;2.70;;;;;;;29.01;26.63;94555.44;5013466;28;20041;-70
2022/08/09 09:38:49;;;;;;;5.30;3.10;;;;;;;28.31;27.11;94570.84;5011212;28;20736;-69
2022/08/09 09:41:22;;;;;;;4.63;3.33;;;;;;;24.11;33.12;94576.47;5042928;28;20037;-68
2022/08/09 09:43:49;;;;;;;4.63;3.40;;;;;;;28.10;27.70;94554.22;5011861;28;20068;-70
2022/08/09 09:46:38;;;;;;;4.80;3.30;;;;;;;28.25;27.29;94565.19;5012109;28;20061;-69
2022/08/09 09:49:10;;;;;;;6.90;3.05;;;;;;;29.02;25.83;94559.03;5011448;28;20046;-68
2022/08/09 09:51:39;;;;;;;6.65;3.10;;;;;;;28.31;26.79;94554.66;5011941;28;20042;-68
2022/08/09 09:54:12;;;;;;;5.10;2.78;;;;;;;32.20;22.00;94564.25;5011465;28;20068;-68
2022/08/09 09:56:51;;;;;;;6.40;2.70;;;;;;;31.51;23.31;94558.13;5011922;28;20054;-71
2022/08/09 09:59:38;;;;;;;5.97;2.97;;;;;;;29.38;25.58;94568.34;5010615;28;21252;-68
2022/08/09 10:02:05;;;;;;;4.30;3.22;;;;;;;26.05;29.91;94565.47;5015760;28;20049;-69
2022/08/09 10:04:33;;;;;;;4.70;2.80;;;;;;;28.95;26.66;94560.34;5020012;28;20045;-69
2022/08/09 10:07:02;;;;;;;5.95;2.80;;;;;;;30.93;23.70;94561.50;5010935;28;20053;-68
2022/08/09 10:09:50;;;;;;;4.40;3.20;;;;;;;25.30;30.59;94568.22;5011931;28;20052;-69
2022/08/09 10:12:28;;;;;;;3.95;2.75;;;;;;;30.28;25.11;94561.16;5008678;28;20607;-68
2022/08/09 10:15:06;;;;;;;6.60;2.78;;;;;;;28.34;26.41;94562.09;5010462;28;20077;-68
2022/08/09 10:17:47;;;;;;;4.40;2.92;;;;;;;27.17;28.28;94569.28;5011453;28;20277;-69
2022/08/09 10:20:25;;;;;;;4.50;2.70;;;;;;;30.69;23.49;94571.56;5010416;28;20913;-68
2022/08/09 10:23:21;;;;;;;4.50;2.70;;;;;;;29.48;24.94;94568.81;5003945;28;20046;-68
2022/08/09 10:25:49;;;;;;;5.93;2.60;;;;;;;30.12;23.80;94568.53;4999185;28;20045;-68
2022/08/09 10:28:36;;;;;;;16.10;2.83;;;;;;;31.75;22.33;94568.56;5011038;28;20103;-70
2022/08/09 10:31:07;;;;;;;4.20;2.65;;;;;;;32.22;21.28;94570.91;5000622;28;20039;-68
2022/08/09 10:33:53;;;;;;;3.65;2.40;;;;;;;34.04;19.52;94562.91;4995962;28;20038;-69
2022/08/09 10:36:41;;;;;;;4.50;2.30;;;;;;;32.29;21.01;94566.63;5011308;28;20483;-70
2022/08/09 10:39:09;;;;;;;4.72;2.80;;;;;;;29.99;23.28;94568.41;5010405;28;20042;-69
2022/08/09 10:41:44;;;;;;;9.27;2.50;;;;;;;32.44;20.45;94557.59;5011121;28;20103;-67
2022/08/09 10:44:17;;;;;;;4.80;2.55;;;;;;;29.26;23.93;94547.09;5009592;28;20618;-70
2022/08/09 10:47:06;;;;;;;4.07;2.40;;;;;;;30.22;22.73;94554.78;5011104;28;20046;-68
2022/08/09 10:50:19;;;;;;;4.77;2.80;;;;;;;27.52;27.13;94568.06;4998995;28;20050;-70
2022/08/09 10:53:03;;;;;;;5.13;2.60;;;;;;;30.03;23.44;94561.16;5010340;28;20057;-67
2022/08/09 10:55:31;;;;;;;4.47;2.45;;;;;;;29.33;23.02;94552.19;5010596;28;20074;-67
2022/08/09 10:58:33;;;;;;;4.82;2.60;;;;;;;28.16;25.24;94560.63;5009324;28;20041;-69
2022/08/09 11:01:03;;;;;;;3.88;2.90;;;;;;;26.42;26.79;94577.94;4997619;28;20056;-68
2022/08/09 11:04:08;;;;;;;4.07;2.50;;;;;;;27.22;26.24;94574.16;5023088;28;20061;-69
2022/08/09 11:06:57;;;;;;;4.97;3.20;;;;;;;24.94;29.96;94580.06;5010148;28;20042;-68
2022/08/09 11:09:38;;;;;;;4.78;2.63;;;;;;;27.65;26.12;94563.47;5010600;28;20040;-69
2022/08/09 11:12:18;;;;;;;3.97;2.70;;;;;;;25.48;28.56;94569.13;5009556;28;20851;-68
2022/08/09 11:14:57;;;;;;;5.20;2.78;;;;;;;25.37;28.55;94589.47;5008878;28;20406;-68
2022/08/09 11:17:23;;;;;;;5.33;2.90;;;;;;;24.57;29.77;94563.81;5015319;28;20389;-68
2022/08/09 11:19:50;;;;;;;4.25;2.80;;;;;;;24.40;30.74;94581.19;4990628;28;20049;-67
2022/08/09 11:22:40;;;;;;;3.92;2.67;;;;;;;24.65;30.42;94567.75;5004363;28;20395;-68
2022/08/09 11:25:10;;;;;;;6.35;3.00;;;;;;;25.21;28.88;94562.78;4996251;28;20042;-69
2022/08/09 11:27:38;;;;;;;5.90;2.95;;;;;;;24.18;32.04;94564.84;5009603;28;20115;-67
2022/08/09 11:30:28;;;;;;;3.90;2.97;;;;;;;24.60;31.26;94565.66;5009254;28;20885;-67
2022/08/09 11:33:04;;;;;;;6.00;3.20;;;;;;;24.21;32.37;94563.13;5009680;28;20038;-68
2022/08/09 11:35:34;;;;;;;5.20;3.30;;;;;;;24.80;31.24;94562.81;5020688;28;20404;-67
2022/08/09 11:38:22;;;;;;;5.50;3.00;;;;;;;25.67;29.59;94561.09;5008729;28;20111;-68
2022/08/09 11:41:28;;;;;;;5.93;3.10;;;;;;;25.55;29.28;94556.66;5009583;28;20050;-66
2022/08/09 11:44:06;;;;;;;5.30;2.93;;;;;;;26.07;29.53;94542.47;5009269;28;20042;-69
2022/08/09 11:46:56;;;;;;;4.18;3.08;;;;;;;26.10;29.50;94553.50;5009883;28;20056;-69
2022/08/09 11:49:57;;;;;;;6.68;2.90;;;;;;;25.91;29.39;94549.53;4998374;28;20656;-68
2022/08/09 11:52:59;;;;;;;5.22;3.30;;;;;;;24.91;30.21;94553.75;5004767;28;21384;-68
2022/08/09 11:55:47;;;;;;;4.68;3.00;;;;;;;25.41;29.97;94561.13;4998338;28;20531;-67
2022/08/09 11:58:29;;;;;;;5.23;3.10;;;;;;;25.65;29.29;94558.78;4995258;28;20403;-70
2022/08/09 12:01:02;;;;;;;4.45;3.10;;;;;;;25.03;29.90;94555.41;4989727;28;20478;-67
2022/08/09 12:03:35;;;;;;;5.25;3.25;;;;;;;25.35;30.50;94554.72;5011993;28;20038;-67
2022/08/09 12:06:22;;;;;;;4.30;2.90;;;;;;;26.26;29.25;94545.66;5008682;28;20407;-66
2022/08/09 12:08:54;;;;;;;4.25;3.17;;;;;;;25.29;30.76;94543.41;4996695;28;20145;-68
2022/08/09 12:11:25;;;;;;;5.83;3.13;;;;;;;26.19;30.19;94543.31;5007645;28;20073;-68
2022/08/09 12:13:55;;;;;;;4.78;3.30;;;;;;;26.40;29.07;94541.88;5009040;28;20065;-68
2022/08/09 12:16:41;;;;;;;5.95;3.30;;;;;;;25.58;30.35;94539.56;5009232;28;20050;-69
2022/08/09 12:19:11;;;;;;;4.38;3.60;;;;;;;25.47;31.06;94540.28;5008711;28;20080;-67